Time;durP1;ratioP1;P1;durP2;ratioP2;P2;SDS_P1;SDS_P2;PMS_P1;PMS_P2;Temp;Humidity;BMP_temperature;BMP_pressure;BME280_temperature;BME280_humidity;BME280_pressure;Samples;Min_cycle;Max_cycle;Signal;HPM_P1;HPM_P2
2023/12/24 00:01:48;;;;;;;8.43;4.47;;;;;;;2.59;100.00;99899.47;7371503;19;20443;-44
2023/12/24 00:04:17;;;;;;;6.63;3.97;;;;;;;2.60;100.00;99896.16;7394390;19;20406;-40
2023/12/24 00:06:47;;;;;;;6.20;3.20;;;;;;;2.40;100.00;99903.44;7371112;19;20494;-39
2023/12/24 00:09:16;;;;;;;4.00;2.70;;;;;;;2.28;100.00;99914.66;7392232;19;21293;-43
2023/12/24 00:11:46;;;;;;;7.73;3.20;;;;;;;2.35;100.00;99918.44;7371232;19;20402;-40
2023/12/24 00:14:18;;;;;;;5.27;3.20;;;;;;;2.47;100.00;99915.78;7394513;19;20408;-39
2023/12/24 00:16:48;;;;;;;3.53;2.30;;;;;;;2.53;100.00;99913.63;7370467;19;20415;-39
2023/12/24 00:19:17;;;;;;;5.20;3.07;;;;;;;2.67;100.00;99916.09;7392115;19;20542;-40
2023/12/24 00:21:47;;;;;;;11.93;4.93;;;;;;;2.69;100.00;99914.53;7370740;19;20444;-40
2023/12/24 00:24:16;;;;;;;5.03;2.80;;;;;;;2.53;100.00;99908.53;7390722;19;20982;-40
2023/12/24 00:26:46;;;;;;;4.20;2.60;;;;;;;2.31;100.00;99933.44;7371484;19;20508;-40
2023/12/24 00:29:18;;;;;;;5.67;3.13;;;;;;;2.33;100.00;99916.59;7393611;19;20871;-39
2023/12/24 00:31:48;;;;;;;7.10;3.50;;;;;;;2.43;100.00;99924.88;7377567;19;20439;-40
2023/12/24 00:34:17;;;;;;;7.10;3.33;;;;;;;2.43;100.00;99936.75;7398165;19;20799;-40
2023/12/24 00:36:47;;;;;;;4.67;2.73;;;;;;;2.29;100.00;99952.06;7373775;19;20451;-40
2023/12/24 00:39:17;;;;;;;7.50;3.40;;;;;;;2.39;100.00;99950.06;7397626;19;20823;-42
2023/12/24 00:41:44;;;;;;;4.90;3.00;;;;;;;2.41;100.00;99956.16;7373921;19;20398;-41
2023/12/24 00:44:13;;;;;;;4.30;2.70;;;;;;;2.43;100.00;99962.22;7397312;19;20382;-40
2023/12/24 00:46:47;;;;;;;3.53;2.60;;;;;;;2.38;100.00;99961.03;7374914;19;20795;-40
2023/12/24 00:49:16;;;;;;;4.80;3.00;;;;;;;2.40;100.00;99974.75;7398083;19;20454;-40
2023/12/24 00:51:46;;;;;;;5.63;2.40;;;;;;;2.51;100.00;99972.88;7376483;19;20959;-40
2023/12/24 00:54:16;;;;;;;4.10;2.60;;;;;;;2.54;100.00;99975.59;7396830;19;20411;-40
2023/12/24 00:56:45;;;;;;;4.03;2.83;;;;;;;2.54;100.00;99971.41;7377022;19;20444;-40
2023/12/24 00:59:15;;;;;;;3.30;2.33;;;;;;;2.58;100.00;99969.03;7396395;19;20518;-43
2023/12/24 01:01:47;;;;;;;2.77;1.87;;;;;;;2.58;100.00;99963.94;7375918;19;20423;-40
2023/12/24 01:04:17;;;;;;;3.87;2.40;;;;;;;2.58;100.00;99963.94;7400283;19;20400;-41
2023/12/24 01:06:46;;;;;;;3.20;2.40;;;;;;;2.54;100.00;99963.75;7376419;19;20425;-44
2023/12/24 01:09:16;;;;;;;2.80;1.93;;;;;;;2.58;100.00;99969.03;7396341;19;20538;-42
2023/12/24 01:11:45;;;;;;;6.70;3.10;;;;;;;2.64;100.00;99964.31;7377276;19;20431;-40
2023/12/24 01:14:15;;;;;;;3.73;2.27;;;;;;;2.66;100.00;99962.75;7396542;19;20931;-42
2023/12/24 01:16:47;;;;;;;5.70;3.17;;;;;;;2.62;100.00;99950.59;7376495;19;20427;-42
2023/12/24 01:19:17;;;;;;;3.97;2.80;;;;;;;2.68;100.00;99966.25;7396138;19;20439;-44
2023/12/24 01:21:46;;;;;;;7.00;3.50;;;;;;;2.75;100.00;99963.31;7376852;19;20419;-43
2023/12/24 01:24:17;;;;;;;4.33;2.60;;;;;;;2.65;100.00;99966.06;7396737;19;20394;-41
2023/12/24 01:26:46;;;;;;;4.97;3.10;;;;;;;2.67;100.00;99959.41;7375701;19;20427;-40
2023/12/24 01:29:16;;;;;;;4.43;3.20;;;;;;;2.81;100.00;99958.56;7396748;19;20466;-44
2023/12/24 01:31:49;;;;;;;4.43;2.77;;;;;;;2.52;100.00;99965.31;7375900;19;20830;-46
2023/12/24 01:34:19;;;;;;;7.70;3.57;;;;;;;2.62;100.00;99963.34;7398699;19;20754;-39
2023/12/24 01:36:49;;;;;;;5.70;3.90;;;;;;;2.64;100.00;99961.75;7372153;19;20416;-39
2023/12/24 01:39:20;;;;;;;6.63;3.77;;;;;;;2.56;100.00;99980.00;7397144;19;20455;-40
2023/12/24 01:41:50;;;;;;;7.07;4.20;;;;;;;2.60;100.00;99975.97;7373832;19;20423;-39
2023/12/24 01:44:19;;;;;;;8.73;4.23;;;;;;;2.70;100.00;99990.16;7398912;19;20392;-39
2023/12/24 01:46:52;;;;;;;10.20;4.90;;;;;;;2.84;100.00;99978.25;7373364;19;20435;-39
2023/12/24 01:49:21;;;;;;;11.83;6.23;;;;;;;2.97;100.00;99979.88;7395173;19;20459;-39
2023/12/24 01:51:52;;;;;;;5.80;3.83;;;;;;;3.06;100.00;99975.34;7374736;19;20427;-40
2023/12/24 01:54:21;;;;;;;8.17;5.07;;;;;;;3.15;100.00;99974.09;7396313;19;20616;-40
2023/12/24 01:56:51;;;;;;;13.20;5.87;;;;;;;3.17;100.00;99967.44;7374728;19;20851;-40
2023/12/24 01:59:21;;;;;;;9.77;5.03;;;;;;;3.16;100.00;99964.00;7394977;19;20451;-40
2023/12/24 02:01:54;;;;;;;9.00;4.67;;;;;;;3.22;100.00;99966.91;7375349;19;20431;-39
2023/12/24 02:04:24;;;;;;;11.13;6.33;;;;;;;3.31;100.00;99964.03;7398718;19;20410;-40
2023/12/24 02:06:54;;;;;;;13.47;6.10;;;;;;;3.34;100.00;99963.34;7374758;19;20428;-41
2023/12/24 02:09:24;;;;;;;11.10;5.57;;;;;;;3.38;100.00;99953.41;7395709;19;20432;-41
2023/12/24 02:11:53;;;;;;;21.03;8.97;;;;;;;3.53;100.00;99952.50;7375418;19;20430;-40
2023/12/24 02:14:23;;;;;;;12.70;6.50;;;;;;;3.54;100.00;99944.06;7395815;19;20830;-40
2023/12/24 02:16:57;;;;;;;9.30;5.20;;;;;;;3.63;100.00;99944.59;7374604;19;20458;-45
2023/12/24 02:19:27;;;;;;;9.60;4.93;;;;;;;3.68;100.00;99932.09;7394800;19;20436;-40
2023/12/24 02:21:59;;;;;;;12.57;5.03;;;;;;;3.96;100.00;99899.56;7373457;19;20787;-40
2023/12/24 02:24:29;;;;;;;10.93;5.03;;;;;;;4.10;100.00;99822.03;7395478;19;20968;-39
2023/12/24 02:27:04;;;;;;;8.10;4.00;;;;;;;4.39;100.00;99816.69;7373387;19;20423;-40
2023/12/24 02:29:36;;;;;;;6.77;3.90;;;;;;;4.59;100.00;99784.50;7395979;19;20453;-39
2023/12/24 02:32:13;;;;;;;4.03;2.73;;;;;;;4.82;100.00;99710.69;7370396;19;20427;-39
2023/12/24 02:34:45;;;;;;;2.00;1.60;;;;;;;5.23;100.00;99650.34;7395800;19;20407;-40
2023/12/24 02:37:17;;;;;;;2.17;1.20;;;;;;;5.38;100.00;99619.47;7371226;19;21351;-40
2023/12/24 02:39:47;;;;;;;2.10;0.70;;;;;;;5.73;100.00;99598.81;7395557;19;20476;-41
2023/12/24 02:42:17;;;;;;;1.40;0.90;;;;;;;5.90;100.00;99576.47;7372525;19;20423;-40
2023/12/24 02:44:47;;;;;;;1.50;0.60;;;;;;;6.05;100.00;99571.13;7395320;19;20424;-40
2023/12/24 02:47:16;;;;;;;1.53;0.50;;;;;;;6.23;100.00;99562.47;7367561;19;21086;-41
2023/12/24 02:49:46;;;;;;;1.37;0.40;;;;;;;6.27;100.00;99566.91;7395314;19;20464;-41
2023/12/24 02:52:18;;;;;;;1.20;0.40;;;;;;;6.32;100.00;99538.91;7372200;19;20435;-40
2023/12/24 02:54:48;;;;;;;1.10;0.30;;;;;;;6.40;100.00;99540.06;7395998;19;20428;-40
2023/12/24 02:57:18;;;;;;;1.47;0.40;;;;;;;6.43;100.00;99523.94;7372220;19;20435;-40
2023/12/24 02:59:47;;;;;;;1.30;0.50;;;;;;;6.44;100.00;99518.88;7395684;19;20523;-45
2023/12/24 03:02:17;;;;;;;1.10;0.30;;;;;;;6.48;100.00;99512.19;7372536;19;20423;-41
2023/12/24 03:04:46;;;;;;;1.67;0.30;;;;;;;6.49;100.00;99511.38;7389837;19;20484;-39
2023/12/24 03:07:19;;;;;;;1.90;0.50;;;;;;;6.53;100.00;99497.88;7369364;19;20584;-42
2023/12/24 03:09:48;;;;;;;1.90;0.63;;;;;;;6.57;100.00;99489.47;7394914;19;20475;-40
2023/12/24 03:12:18;;;;;;;1.20;0.57;;;;;;;6.55;100.00;99480.84;7371724;19;20904;-42
2023/12/24 03:14:47;;;;;;;1.20;0.53;;;;;;;6.56;100.00;99471.47;7394654;19;20458;-38
2023/12/24 03:17:17;;;;;;;1.40;0.50;;;;;;;6.56;100.00;99472.34;7371144;19;20447;-40
2023/12/24 03:19:47;;;;;;;1.10;0.40;;;;;;;6.65;100.00;99474.38;7394772;19;20432;-40
2023/12/24 03:22:20;;;;;;;1.20;0.40;;;;;;;6.65;100.00;99476.09;7370200;19;20438;-40
2023/12/24 03:24:49;;;;;;;1.87;0.57;;;;;;;6.65;100.00;99458.13;7394623;19;20436;-41
2023/12/24 03:27:19;;;;;;;1.10;0.40;;;;;;;6.69;100.00;99459.97;7370618;19;20848;-39
2023/12/24 03:29:48;;;;;;;1.20;0.50;;;;;;;6.66;100.00;99462.44;7394352;19;20412;-40
2023/12/24 03:32:18;;;;;;;1.20;0.40;;;;;;;6.66;100.00;99452.19;7371502;19;20491;-40
2023/12/24 03:34:48;;;;;;;1.20;0.50;;;;;;;6.67;100.00;99448.81;7394753;19;20443;-42
2023/12/24 03:37:20;;;;;;;1.10;0.30;;;;;;;6.70;100.00;99448.91;7370693;19;20431;-42
2023/12/24 03:39:49;;;;;;;1.20;0.40;;;;;;;6.70;100.00;99461.72;7393774;19;20935;-41
2023/12/24 03:42:19;;;;;;;1.00;0.37;;;;;;;6.69;100.00;99458.31;7371590;19;20499;-40
2023/12/24 03:44:49;;;;;;;2.53;0.47;;;;;;;6.70;100.00;99452.34;7393658;19;20986;-40
2023/12/24 03:47:18;;;;;;;1.70;0.50;;;;;;;6.71;100.00;99448.97;7368087;19;20831;-40
2023/12/24 03:49:48;;;;;;;1.30;0.40;;;;;;;6.70;100.00;99438.66;7393412;19;20893;-40
2023/12/24 03:52:20;;;;;;;1.10;0.30;;;;;;;6.71;100.00;99445.50;7370139;19;20430;-40
2023/12/24 03:54:49;;;;;;;1.20;0.43;;;;;;;6.70;100.00;99444.66;7390659;19;20443;-40
2023/12/24 03:57:19;;;;;;;1.43;0.60;;;;;;;6.72;100.00;99437.03;7369780;19;20440;-40
2023/12/24 03:59:48;;;;;;;1.20;0.43;;;;;;;6.73;100.00;99428.53;7393256;19;20415;-39
2023/12/24 04:02:18;;;;;;;1.20;0.50;;;;;;;6.75;100.00;99443.16;7369936;19;20429;-41
2023/12/24 04:04:48;;;;;;;1.10;0.40;;;;;;;6.78;100.00;99437.25;7391809;19;20464;-40
2023/12/24 04:07:21;;;;;;;3.20;0.60;;;;;;;6.76;100.00;99444.00;7369650;19;20522;-40
2023/12/24 04:09:50;;;;;;;1.13;0.50;;;;;;;6.74;100.00;99440.50;7392822;19;20407;-40
2023/12/24 04:12:20;;;;;;;1.20;0.50;;;;;;;6.69;100.00;99439.47;7369798;19;20499;-40
2023/12/24 04:14:49;;;;;;;1.10;0.40;;;;;;;6.68;100.00;99446.31;7392854;19;20530;-39
2023/12/24 04:17:19;;;;;;;1.20;0.60;;;;;;;6.67;100.00;99443.69;7369018;19;20420;-39
2023/12/24 04:19:49;;;;;;;1.20;0.60;;;;;;;6.69;100.00;99442.03;7392550;19;20424;-39
2023/12/24 04:22:21;;;;;;;1.63;0.70;;;;;;;6.70;100.00;99428.41;7370265;19;20415;-40
2023/12/24 04:24:51;;;;;;;1.20;0.50;;;;;;;6.71;100.00;99427.56;7392484;19;20442;-40
2023/12/24 04:27:20;;;;;;;2.23;0.40;;;;;;;6.72;100.00;99419.09;7369428;19;20433;-40
2023/12/24 04:29:50;;;;;;;1.50;0.90;;;;;;;6.73;100.00;99415.72;7392153;19;20565;-39
2023/12/24 04:32:20;;;;;;;1.40;0.40;;;;;;;6.72;100.00;99411.41;7369418;19;20438;-40
2023/12/24 04:34:50;;;;;;;1.30;0.47;;;;;;;6.70;100.00;99392.50;7392122;19;20821;-40
2023/12/24 04:37:22;;;;;;;1.10;0.30;;;;;;;6.68;100.00;99374.53;7368439;19;20431;-39
2023/12/24 04:39:52;;;;;;;1.40;0.60;;;;;;;6.71;100.00;99363.50;7392007;19;20403;-40
2023/12/24 04:42:22;;;;;;;1.30;0.60;;;;;;;6.70;100.00;99352.38;7368747;19;20438;-39
2023/12/24 04:44:51;;;;;;;1.43;0.60;;;;;;;6.72;100.00;99343.03;7391576;19;20443;-39
2023/12/24 04:47:21;;;;;;;1.40;0.60;;;;;;;6.72;100.00;99343.03;7367270;19;20782;-39
2023/12/24 04:49:50;;;;;;;1.40;0.70;;;;;;;6.73;100.00;99331.09;7391738;19;20395;-40
2023/12/24 04:52:23;;;;;;;1.40;0.60;;;;;;;6.73;100.00;99318.28;7369044;19;20431;-40
2023/12/24 04:54:52;;;;;;;1.10;0.40;;;;;;;6.72;100.00;99314.84;7391417;19;20443;-40
2023/12/24 04:57:22;;;;;;;1.10;0.40;;;;;;;6.72;100.00;99304.59;7367991;19;20546;-40
2023/12/24 04:59:51;;;;;;;1.90;0.40;;;;;;;6.72;100.00;99286.66;7391537;19;20405;-38
2023/12/24 05:02:21;;;;;;;1.50;0.50;;;;;;;6.74;100.00;99286.72;7368795;19;20436;-39
2023/12/24 05:04:53;;;;;;;1.87;0.43;;;;;;;6.74;100.00;99287.59;7390821;19;20451;-39
2023/12/24 05:07:26;;;;;;;1.10;0.40;;;;;;;6.75;100.00;99273.06;7368187;19;20430;-40
2023/12/24 05:09:55;;;;;;;1.10;0.40;;;;;;;6.75;100.00;99268.81;7391259;19;21030;-39
2023/12/24 05:12:25;;;;;;;1.53;0.50;;;;;;;6.78;100.00;99257.81;7368396;19;20419;-41
2023/12/24 05:14:54;;;;;;;1.40;0.60;;;;;;;6.79;100.00;99262.09;7391271;19;20443;-41
2023/12/24 05:17:24;;;;;;;1.20;0.63;;;;;;;6.77;100.00;99258.59;7374268;19;20431;-39
2023/12/24 05:19:54;;;;;;;3.10;0.50;;;;;;;6.79;100.00;99262.09;7397616;19;20762;-39
2023/12/24 05:22:26;;;;;;;1.20;0.40;;;;;;;6.77;100.00;99240.66;7375185;19;20433;-39
2023/12/24 05:24:56;;;;;;;1.10;0.30;;;;;;;6.79;100.00;99238.16;7397218;19;21287;-40
2023/12/24 05:27:25;;;;;;;1.20;0.60;;;;;;;6.78;100.00;99242.41;7374265;19;20447;-40
2023/12/24 05:29:55;;;;;;;1.10;0.40;;;;;;;6.78;100.00;99244.97;7397581;19;20412;-40
2023/12/24 05:32:24;;;;;;;1.37;0.50;;;;;;;6.79;100.00;99236.47;7373882;19;20437;-39
2023/12/24 05:34:54;;;;;;;1.20;0.40;;;;;;;6.79;100.00;99233.91;7397975;19;20472;-40
2023/12/24 05:37:26;;;;;;;1.10;0.40;;;;;;;6.80;100.00;99233.06;7373727;19;20460;-40
2023/12/24 05:39:56;;;;;;;2.70;0.70;;;;;;;6.80;100.00;99227.94;7397253;19;20404;-39
2023/12/24 05:42:26;;;;;;;1.40;0.70;;;;;;;6.80;100.00;99220.25;7374383;19;21069;-38
2023/12/24 05:44:55;;;;;;;1.67;0.50;;;;;;;6.81;100.00;99210.88;7398077;19;20532;-38
2023/12/24 05:47:25;;;;;;;1.30;0.70;;;;;;;6.84;100.00;99195.59;7372061;19;20439;-39
2023/12/24 05:49:55;;;;;;;1.20;0.47;;;;;;;6.82;100.00;99203.22;7396670;19;20931;-38
2023/12/24 05:52:27;;;;;;;1.30;0.60;;;;;;;6.82;100.00;99205.78;7374405;19;20450;-39
2023/12/24 05:54:57;;;;;;;1.20;0.50;;;;;;;6.83;100.00;99194.69;7397032;19;20455;-39
2023/12/24 05:57:26;;;;;;;1.13;0.50;;;;;;;6.84;100.00;99196.47;7373493;19;20431;-39
2023/12/24 05:59:56;;;;;;;1.17;0.47;;;;;;;6.83;100.00;99179.31;7396727;19;20479;-38
2023/12/24 06:02:25;;;;;;;1.20;0.60;;;;;;;6.84;100.00;99178.53;7374189;19;20431;-39
2023/12/24 06:04:55;;;;;;;1.20;0.50;;;;;;;6.85;100.00;99171.69;7395930;19;20443;-38
2023/12/24 06:07:27;;;;;;;5.83;0.60;;;;;;;6.84;100.00;99175.97;7373128;19;20447;-39
2023/12/24 06:09:57;;;;;;;1.20;0.60;;;;;;;6.84;100.00;99159.69;7396183;19;20411;-38
2023/12/24 06:12:26;;;;;;;1.20;0.60;;;;;;;6.85;100.00;99157.19;7373769;19;20423;-38
2023/12/24 06:14:56;;;;;;;1.60;0.50;;;;;;;6.86;100.00;99151.22;7395896;19;20437;-39
2023/12/24 06:17:25;;;;;;;1.10;0.40;;;;;;;6.86;100.00;99140.97;7372813;19;20435;-39
2023/12/24 06:19:55;;;;;;;1.30;0.63;;;;;;;6.88;100.00;99154.69;7396200;19;20411;-38
2023/12/24 06:22:27;;;;;;;1.20;0.50;;;;;;;6.85;100.00;99131.53;7373121;19;20437;-38
2023/12/24 06:24:57;;;;;;;1.30;0.40;;;;;;;6.87;100.00;99141.84;7396014;19;20443;-38
2023/12/24 06:27:27;;;;;;;1.10;0.40;;;;;;;6.89;100.00;99141.06;7371099;19;20423;-38
2023/12/24 06:29:57;;;;;;;1.30;0.60;;;;;;;6.89;100.00;99129.94;7396849;19;20428;-39
2023/12/24 06:32:26;;;;;;;1.10;0.30;;;;;;;6.89;100.00;99129.94;7372950;19;20443;-39
2023/12/24 06:34:56;;;;;;;1.10;0.30;;;;;;;6.91;100.00;99119.75;7396020;19;20459;-38
2023/12/24 06:37:28;;;;;;;1.13;0.40;;;;;;;6.91;100.00;99115.47;7372576;19;20515;-39
2023/12/24 06:39:58;;;;;;;1.23;0.50;;;;;;;6.93;100.00;99110.41;7395635;19;20412;-38
2023/12/24 06:42:27;;;;;;;1.53;0.60;;;;;;;6.92;100.00;99121.47;7372520;19;20518;-38
2023/12/24 06:44:57;;;;;;;1.30;0.57;;;;;;;6.91;100.00;99117.19;7395603;19;20538;-38
2023/12/24 06:47:27;;;;;;;1.30;0.60;;;;;;;6.94;100.00;99101.88;7370285;19;20518;-38
2023/12/24 06:49:56;;;;;;;1.20;0.50;;;;;;;6.95;100.00;99083.09;7394276;19;20400;-38
2023/12/24 06:52:29;;;;;;;1.30;0.63;;;;;;;6.94;100.00;99094.19;7367724;19;20486;-38
2023/12/24 06:54:58;;;;;;;1.10;0.40;;;;;;;6.96;100.00;99090.84;7394184;19;20515;-38
2023/12/24 06:57:28;;;;;;;1.13;0.50;;;;;;;6.98;100.00;99090.91;7371612;19;20431;-38
2023/12/24 06:59:57;;;;;;;1.30;0.60;;;;;;;6.98;100.00;99081.50;7395187;19;20483;-38
2023/12/24 07:02:27;;;;;;;1.20;0.40;;;;;;;6.96;100.00;99069.44;7371738;19;20423;-38
2023/12/24 07:04:57;;;;;;;1.20;0.50;;;;;;;6.98;100.00;99075.50;7391812;19;20510;-38
2023/12/24 07:07:29;;;;;;;1.10;0.40;;;;;;;7.01;100.00;99081.59;7368032;19;20804;-38
2023/12/24 07:09:58;;;;;;;1.30;0.50;;;;;;;7.01;100.00;99083.28;7394325;19;20406;-38
2023/12/24 07:12:31;;;;;;;1.60;0.73;;;;;;;7.02;100.00;99075.63;7372135;19;20458;-38
2023/12/24 07:15:01;;;;;;;1.23;0.50;;;;;;;7.01;100.00;99066.22;7394462;19;20863;-39
2023/12/24 07:17:30;;;;;;;1.20;0.60;;;;;;;7.04;100.00;99065.44;7371574;19;20428;-39
2023/12/24 07:20:00;;;;;;;1.57;0.80;;;;;;;7.04;100.00;99068.00;7394549;19;20436;-38
2023/12/24 07:22:33;;;;;;;1.20;0.57;;;;;;;7.05;100.00;99056.03;7371443;19;20449;-39
2023/12/24 07:25:02;;;;;;;1.40;0.97;;;;;;;7.06;100.00;99056.06;7394650;19;20443;-39
2023/12/24 07:27:32;;;;;;;1.50;0.67;;;;;;;7.09;100.00;99052.72;7370692;19;20535;-38
2023/12/24 07:30:01;;;;;;;1.20;0.70;;;;;;;7.08;100.00;99051.00;7394349;19;20403;-38
2023/12/24 07:32:31;;;;;;;1.30;0.53;;;;;;;7.08;100.00;99049.28;7370324;19;20891;-38
2023/12/24 07:35:01;;;;;;;2.07;1.17;;;;;;;7.18;100.00;99042.72;7388113;19;20451;-38
2023/12/24 07:37:33;;;;;;;1.40;0.60;;;;;;;7.14;100.00;99036.63;7365072;19;20878;-38
2023/12/24 07:40:03;;;;;;;1.90;1.13;;;;;;;7.16;100.00;99036.69;7394102;19;20407;-39
2023/12/24 07:42:32;;;;;;;2.17;0.70;;;;;;;7.14;100.00;99028.94;7368777;19;20450;-38
2023/12/24 07:45:03;;;;;;;1.40;0.80;;;;;;;7.18;100.00;99023.91;7394088;19;20443;-38
2023/12/24 07:47:32;;;;;;;2.73;1.50;;;;;;;7.19;100.00;99023.97;7368557;19;20446;-39
2023/12/24 07:50:02;;;;;;;1.30;0.60;;;;;;;7.21;100.00;99016.28;7393530;19;21364;-38
2023/12/24 07:52:34;;;;;;;1.17;0.50;;;;;;;7.22;100.00;99012.91;7370481;19;20507;-38
2023/12/24 07:55:04;;;;;;;1.30;0.60;;;;;;;7.25;100.00;99015.56;7393708;19;20447;-39
2023/12/24 07:57:33;;;;;;;1.30;0.73;;;;;;;7.25;100.00;99015.56;7370043;19;20518;-38
2023/12/24 08:00:03;;;;;;;1.57;1.00;;;;;;;7.27;100.00;99024.16;7393261;19;20934;-38
2023/12/24 08:02:33;;;;;;;1.40;0.80;;;;;;;7.30;100.00;98994.31;7369286;19;20430;-38
2023/12/24 08:05:03;;;;;;;2.23;1.13;;;;;;;7.31;100.00;98987.50;7392859;19;20439;-38
2023/12/24 08:07:35;;;;;;;4.63;2.40;;;;;;;7.30;100.00;98999.44;7366290;19;20444;-39
2023/12/24 08:10:06;;;;;;;1.53;1.07;;;;;;;7.34;100.00;98987.56;7392442;19;20412;-39
2023/12/24 08:12:35;;;;;;;1.37;0.87;;;;;;;7.35;100.00;98975.63;7370458;19;20431;-38
2023/12/24 08:15:06;;;;;;;1.20;0.60;;;;;;;7.34;100.00;98994.41;7393509;19;20447;-38
2023/12/24 08:17:36;;;;;;;42.87;14.93;;;;;;;7.56;100.00;98977.88;7366527;19;20468;-38
2023/12/24 08:20:07;;;;;;;2.07;0.70;;;;;;;7.54;100.00;98987.25;7392382;19;20403;-38
2023/12/24 08:22:40;;;;;;;1.17;0.47;;;;;;;7.43;100.00;98998.09;7368698;19;20429;-38
2023/12/24 08:25:10;;;;;;;1.40;0.60;;;;;;;7.43;100.00;98992.94;7391367;19;20539;-38
2023/12/24 08:27:40;;;;;;;2.30;1.30;;;;;;;7.47;100.00;98995.59;7369681;19;20796;-38
2023/12/24 08:30:11;;;;;;;5.83;2.43;;;;;;;7.49;100.00;98983.69;7391192;19;20407;-38
2023/12/24 08:32:40;;;;;;;1.30;0.53;;;;;;;7.46;100.00;98988.72;7369027;19;20423;-38
2023/12/24 08:35:11;;;;;;;1.20;0.40;;;;;;;7.47;100.00;98995.59;7391051;19;20462;-39
2023/12/24 08:37:43;;;;;;;1.37;0.50;;;;;;;7.48;100.00;98999.91;7368597;19;20422;-38
2023/12/24 08:40:14;;;;;;;2.60;1.10;;;;;;;7.50;100.00;98993.13;7390637;19;20995;-38
2023/12/24 08:42:44;;;;;;;3.40;0.60;;;;;;;7.52;100.00;98996.56;7367688;19;20427;-38
2023/12/24 08:45:13;;;;;;;1.20;0.57;;;;;;;7.53;100.00;98995.75;7390047;19;20967;-38
2023/12/24 08:47:43;;;;;;;2.60;0.90;;;;;;;7.54;100.00;98989.81;7366859;19;21313;-38
2023/12/24 08:50:13;;;;;;;1.10;0.40;;;;;;;7.54;100.00;98969.28;7392238;19;20399;-38
2023/12/24 08:52:45;;;;;;;3.63;1.57;;;;;;;7.55;100.00;98979.56;7375632;19;20506;-38
2023/12/24 08:55:15;;;;;;;1.10;0.50;;;;;;;7.57;100.00;98995.00;7398485;19;20438;-38
2023/12/24 08:57:46;;;;;;;1.90;1.13;;;;;;;7.56;100.00;99003.53;7375754;19;20423;-38
2023/12/24 09:00:16;;;;;;;1.20;0.70;;;;;;;7.55;100.00;98991.53;7399269;19;20408;-38
2023/12/24 09:02:46;;;;;;;1.40;0.77;;;;;;;7.56;100.00;98983.00;7374596;19;20431;-38
2023/12/24 09:05:18;;;;;;;1.40;0.80;;;;;;;7.56;100.00;98977.88;7396846;19;20562;-38
2023/12/24 09:07:50;;;;;;;1.30;0.70;;;;;;;7.56;100.00;98998.41;7373298;19;21006;-38
2023/12/24 09:10:20;;;;;;;4.80;1.67;;;;;;;7.58;100.00;98932.56;7397233;19;20819;-38
2023/12/24 09:12:49;;;;;;;37.53;12.43;;;;;;;7.68;100.00;98842.13;7375767;19;20792;-38
2023/12/24 09:15:19;;;;;;;1.30;0.60;;;;;;;7.64;100.00;98709.41;7397930;19;20439;-38
2023/12/24 09:17:49;;;;;;;1.40;0.70;;;;;;;7.67;100.00;98685.50;7375098;19;20445;-38
2023/12/24 09:20:19;;;;;;;1.20;0.60;;;;;;;7.67;100.00;98704.34;7396654;19;20483;-38
2023/12/24 09:22:51;;;;;;;1.50;0.60;;;;;;;7.67;100.00;98724.00;7374135;19;20463;-38
2023/12/24 09:25:21;;;;;;;1.10;0.50;;;;;;;7.69;100.00;98718.06;7396496;19;20994;-37
2023/12/24 09:27:51;;;;;;;1.20;0.50;;;;;;;7.72;100.00;98731.81;7375114;19;20431;-39
2023/12/24 09:30:21;;;;;;;1.20;0.70;;;;;;;7.75;100.00;98778.09;7395900;19;21000;-38
2023/12/24 09:32:51;;;;;;;2.23;0.80;;;;;;;7.75;100.00;98783.22;7375604;19;20511;-38
2023/12/24 09:35:21;;;;;;;24.03;11.13;;;;;;;7.87;100.00;98760.38;7396167;19;20835;-37
2023/12/24 09:37:53;;;;;;;15.23;5.07;;;;;;;8.06;100.00;98732.50;7374576;19;20427;-38
2023/12/24 09:40:22;;;;;;;10.33;4.20;;;;;;;7.92;100.00;98781.88;7396691;19;20424;-37
2023/12/24 09:42:52;;;;;;;20.20;5.97;;;;;;;7.97;100.00;98741.75;7374159;19;20504;-37
2023/12/24 09:45:23;;;;;;;24.77;9.23;;;;;;;8.14;100.00;98709.53;7396204;19;20522;-37
2023/12/24 09:47:55;;;;;;;21.53;6.00;;;;;;;8.11;100.00;98900.44;7375001;19;20441;-37
2023/12/24 09:50:25;;;;;;;37.63;13.97;;;;;;;8.10;100.00;98930.38;7398780;19;20414;-38
2023/12/24 09:52:57;;;;;;;36.67;11.77;;;;;;;8.19;100.00;98963.13;7375633;19;20439;-37
2023/12/24 09:55:27;;;;;;;2.13;1.33;;;;;;;8.18;100.00;99277.38;7396707;19;20515;-37
2023/12/24 09:57:56;;;;;;;8.37;3.30;;;;;;;8.20;100.00;99286.00;7375042;19;20451;-37
2023/12/24 10:00:26;;;;;;;8.87;3.73;;;;;;;8.22;100.00;99302.31;7395811;19;20782;-38
2023/12/24 10:02:55;;;;;;;8.10;2.67;;;;;;;8.20;100.00;99308.28;7370003;19;20519;-37
2023/12/24 10:05:26;;;;;;;4.03;1.57;;;;;;;8.28;100.00;99303.31;7394786;19;20459;-37
2023/12/24 10:07:58;;;;;;;1.13;0.50;;;;;;;8.14;100.00;99334.63;7372266;19;20503;-38
2023/12/24 10:10:34;;;;;;;1.80;0.60;;;;;;;8.11;100.00;99319.16;7391033;19;20424;-36
2023/12/24 10:13:07;;;;;;;1.40;0.37;;;;;;;8.12;100.00;99333.75;7396289;19;20422;-37
2023/12/24 10:15:38;;;;;;;1.30;0.50;;;;;;;8.14;100.00;99326.94;7373311;19;20813;-37
2023/12/24 10:18:18;;;;;;;1.30;0.50;;;;;;;8.17;100.00;99334.75;7393143;19;20399;-37
2023/12/24 10:20:49;;;;;;;1.40;0.60;;;;;;;8.18;100.00;99325.31;7373169;19;20376;-38
2023/12/24 10:23:22;;;;;;;1.20;0.50;;;;;;;8.17;100.00;99321.00;7395063;19;20753;-37
2023/12/24 10:26:02;;;;;;;1.90;0.67;;;;;;;8.17;100.00;99321.91;7372911;19;20391;-37
2023/12/24 10:28:32;;;;;;;1.40;0.70;;;;;;;8.18;100.00;99322.75;7393484;19;20407;-37
2023/12/24 10:31:09;;;;;;;1.30;0.47;;;;;;;8.17;100.00;99324.47;7374069;19;20435;-37
2023/12/24 10:33:40;;;;;;;2.07;0.90;;;;;;;8.16;100.00;99322.69;7395957;19;20452;-37
2023/12/24 10:36:10;;;;;;;1.10;0.50;;;;;;;8.18;100.00;99318.50;7371572;19;20431;-37
2023/12/24 10:38:44;;;;;;;1.30;0.60;;;;;;;8.17;100.00;99301.34;7394038;19;20474;-37
2023/12/24 10:41:15;;;;;;;1.33;0.73;;;;;;;8.20;100.00;99298.84;7371558;19;21021;-38
2023/12/24 10:43:45;;;;;;;1.30;0.70;;;;;;;8.21;100.00;99295.44;7394024;19;20427;-38
2023/12/24 10:46:15;;;;;;;1.67;0.67;;;;;;;8.23;100.00;99292.94;7370254;19;20437;-38
2023/12/24 10:48:45;;;;;;;1.60;1.13;;;;;;;8.26;100.00;99281.88;7393719;19;20411;-37
2023/12/24 10:51:15;;;;;;;1.20;0.50;;;;;;;8.22;100.00;99283.47;7371904;19;20510;-37
2023/12/24 10:53:47;;;;;;;1.73;1.00;;;;;;;8.24;100.00;99277.56;7395126;19;20435;-38
2023/12/24 10:56:20;;;;;;;1.30;0.77;;;;;;;8.27;100.00;99276.78;7371492;19;20825;-37
2023/12/24 10:58:54;;;;;;;1.30;1.00;;;;;;;8.29;100.00;99276.78;7393804;19;20407;-38
2023/12/24 11:01:24;;;;;;;1.90;0.53;;;;;;;8.31;100.00;99273.44;7371699;19;20448;-38
2023/12/24 11:03:53;;;;;;;1.40;0.77;;;;;;;8.33;100.00;99273.50;7393166;19;20507;-38
2023/12/24 11:06:47;;;;;;;1.20;0.60;;;;;;;8.37;100.00;99271.03;7369081;19;20786;-38
2023/12/24 11:09:49;;;;;;;1.50;0.80;;;;;;;8.36;100.00;99256.44;7391618;19;20951;-37
2023/12/24 11:12:30;;;;;;;1.40;0.70;;;;;;;8.40;100.00;99246.28;7370906;19;20426;-38
2023/12/24 11:14:59;;;;;;;1.30;0.70;;;;;;;8.43;100.00;99254.94;7394722;19;20554;-38
2023/12/24 11:17:50;;;;;;;1.63;0.87;;;;;;;8.42;100.00;99245.47;7370524;19;20959;-38
2023/12/24 11:20:33;;;;;;;6.33;1.40;;;;;;;8.44;100.00;99235.22;7393810;19;20406;-38
2023/12/24 11:23:16;;;;;;;1.40;0.80;;;;;;;8.47;100.00;99235.31;7372787;19;20443;-38
2023/12/24 11:25:50;;;;;;;1.20;0.40;;;;;;;8.48;100.00;99234.47;7371646;19;20450;-38
2023/12/24 11:28:38;;;;;;;2.40;0.60;;;;;;;8.50;100.00;99218.25;7388940;19;20407;-38
2023/12/24 11:31:09;;;;;;;1.43;0.70;;;;;;;8.55;100.00;99214.97;7372942;19;20421;-37
2023/12/24 11:33:48;;;;;;;1.50;0.40;;;;;;;8.58;100.00;99221.06;7393937;19;20414;-37
2023/12/24 11:36:20;;;;;;;1.30;0.70;;;;;;;8.62;100.00;99214.31;7371425;19;20444;-38
2023/12/24 11:38:50;;;;;;;2.53;0.60;;;;;;;8.62;100.00;99206.59;7392161;19;20491;-38
2023/12/24 11:41:23;;;;;;;1.40;0.70;;;;;;;8.62;100.00;99211.72;7369677;19;20503;-37
2023/12/24 11:43:58;;;;;;;1.10;0.30;;;;;;;8.62;100.00;99228.00;7391856;19;20434;-37
2023/12/24 11:46:28;;;;;;;1.30;0.70;;;;;;;8.64;100.00;99216.09;7368113;19;20980;-38
2023/12/24 11:49:05;;;;;;;1.70;0.87;;;;;;;8.67;100.00;99220.41;7393842;19;20414;-37